Faith, SD (57626)

8:58 AM MST on February 07, 2016 (GMT -0700)
Philip | | Change Station
CLOSE
Current Station
Airport
Location: Philip,
Elevation: 2208 ft
Nearby Weather Stations
Active Advisory: High Wind Warning

Elev 2208 ft 44.05 °N, 101.60 °W | Updated 3 minutes ago

Partly Cloudy
Partly Cloudy
38 °F
Feels Like 24 °F
N
38
Wind Variable Wind from WNW
Gusts 53 mph

Today
High -- | Low -- °F
--% Chance of Precip.
Yesterday
High -- | Low -- °F
Precip. -- in
Pressure 30.06 in
Visibility 10.0 miles
Clouds Clear
Windchill 24 °F
Dew Point 17 °F
Humidity 43%
Rainfall 0.00 in
Snow Depth Not available.
7:01 AM 5:04 PM
Waning Crescent, 1% visible
METAR KPHP 071555Z AUTO 30033G46KT 10SM CLR 03/M08 A3003 RMK AO2 PK WND 30053/1539 SLP179 T00331083
Pressure 30.06 in
Visibility 10.0 miles
Clouds Clear
Windchill 24 °F
Dew Point 17 °F
Humidity 43%
Rainfall 0.00 in
Snow Depth Not available.
7:01 AM 5:04 PM
Waning Crescent, 1% visible
METAR KPHP 071555Z AUTO 30033G46KT 10SM CLR 03/M08 A3003 RMK AO2 PK WND 30053/1539 SLP179 T00331083

10-Day Weather Forecast

Almanac

Astronomy

Feb. 07, 2016 Rise Set
Actual Time
Civil Twilight
Nautical Twilight
Astronomical Twilight
Moon
Length of Visible Light
Length of Day
Tomorrow will be .
, % of the Moon is Illuminated

Today's Extremes

State Highs State Lows

Community

WunderPhotos

Upload Photos

1,891,216 photos uploaded!

WunderBlog® & News

Nearby

Air Quality

  Air Quality AQ Index Pollutant
Not available.

Snow Depth

Station Depth Elevation

Earthquake Activity

City Distance Mag. Time & Date
Minimum magnitude displayed is 2.5.

Coastal Water Temperatures

Place Temperature

Stations

Nearby Weather Stations

Station Location Temp. Windchill Dew Point Humidity Wind Precip. Elev Updated Type
                   

Watches & Warnings

High Wind Warning
Issued: 2:04 AM MST Feb. 7, 2016 – National Weather Service

... High Wind Warning remains in effect until 8 PM MST this
evening...

* timing... very strong winds today... gradually decreasing this
evening.

* Winds... northwest increasing to 40 to 50 mph with gusts up to
75 mph.

* Impacts... the high winds can blow down large trees... and
damage roofs... small outbuildings... and signs. Sudden wind
gusts can cause drivers to lose control... especially in
lightweight or high profile vehicles. Strong winds can cause
blowing dust... reduced visibility... and flying debris.